sensor_id;sensor_type;location;lat;lon;timestamp;P1;durP1;ratioP1;P2;durP2;ratioP2
58208;SDS011;44006;52.028;4.696;2023-11-21T00:00:15;17.40;;;10.33;;
58208;SDS011;44006;52.028;4.696;2023-11-21T00:02:41;16.67;;;9.38;;
58208;SDS011;44006;52.028;4.696;2023-11-21T00:05:07;15.52;;;9.57;;
58208;SDS011;44006;52.028;4.696;2023-11-21T00:07:33;15.57;;;9.60;;
58208;SDS011;44006;52.028;4.696;2023-11-21T00:09:58;16.33;;;10.48;;
58208;SDS011;44006;52.028;4.696;2023-11-21T00:12:23;20.13;;;9.80;;
58208;SDS011;44006;52.028;4.696;2023-11-21T00:14:49;18.38;;;9.68;;
58208;SDS011;44006;52.028;4.696;2023-11-21T00:17:15;20.75;;;10.32;;
58208;SDS011;44006;52.028;4.696;2023-11-21T00:19:40;15.83;;;10.10;;
58208;SDS011;44006;52.028;4.696;2023-11-21T00:22:05;17.63;;;9.93;;
58208;SDS011;44006;52.028;4.696;2023-11-21T00:24:32;19.10;;;10.75;;
58208;SDS011;44006;52.028;4.696;2023-11-21T00:26:57;17.65;;;9.93;;
58208;SDS011;44006;52.028;4.696;2023-11-21T00:29:22;20.70;;;10.20;;
58208;SDS011;44006;52.028;4.696;2023-11-21T00:31:47;23.10;;;11.82;;
58208;SDS011;44006;52.028;4.696;2023-11-21T00:34:13;23.83;;;11.45;;
58208;SDS011;44006;52.028;4.696;2023-11-21T00:36:39;22.38;;;11.32;;
58208;SDS011;44006;52.028;4.696;2023-11-21T00:39:05;28.83;;;12.27;;
58208;SDS011;44006;52.028;4.696;2023-11-21T00:41:31;21.08;;;11.82;;
58208;SDS011;44006;52.028;4.696;2023-11-21T00:43:56;23.27;;;12.25;;
58208;SDS011;44006;52.028;4.696;2023-11-21T00:46:21;26.38;;;12.77;;
58208;SDS011;44006;52.028;4.696;2023-11-21T00:48:49;21.77;;;11.20;;
58208;SDS011;44006;52.028;4.696;2023-11-21T00:51:14;25.83;;;12.05;;
58208;SDS011;44006;52.028;4.696;2023-11-21T00:53:39;28.35;;;11.73;;
58208;SDS011;44006;52.028;4.696;2023-11-21T00:56:04;22.95;;;10.93;;
58208;SDS011;44006;52.028;4.696;2023-11-21T00:58:30;25.67;;;11.27;;
58208;SDS011;44006;52.028;4.696;2023-11-21T01:00:55;25.70;;;12.40;;
58208;SDS011;44006;52.028;4.696;2023-11-21T01:03:21;32.42;;;12.38;;
58208;SDS011;44006;52.028;4.696;2023-11-21T01:05:46;23.60;;;12.02;;
58208;SDS011;44006;52.028;4.696;2023-11-21T01:08:11;32.23;;;11.20;;
58208;SDS011;44006;52.028;4.696;2023-11-21T01:10:37;23.00;;;11.10;;
58208;SDS011;44006;52.028;4.696;2023-11-21T01:13:02;23.52;;;12.40;;
58208;SDS011;44006;52.028;4.696;2023-11-21T01:15:30;25.38;;;11.95;;
58208;SDS011;44006;52.028;4.696;2023-11-21T01:17:55;22.92;;;11.60;;
58208;SDS011;44006;52.028;4.696;2023-11-21T01:20:21;23.33;;;11.27;;
58208;SDS011;44006;52.028;4.696;2023-11-21T01:22:46;24.63;;;12.10;;
58208;SDS011;44006;52.028;4.696;2023-11-21T01:25:14;24.02;;;11.68;;
58208;SDS011;44006;52.028;4.696;2023-11-21T01:27:39;24.27;;;10.95;;
58208;SDS011;44006;52.028;4.696;2023-11-21T01:30:04;21.75;;;10.50;;
58208;SDS011;44006;52.028;4.696;2023-11-21T01:32:30;19.13;;;10.23;;
58208;SDS011;44006;52.028;4.696;2023-11-21T01:34:55;24.23;;;10.97;;
58208;SDS011;44006;52.028;4.696;2023-11-21T01:37:21;20.93;;;10.53;;
58208;SDS011;44006;52.028;4.696;2023-11-21T01:39:46;20.95;;;11.02;;
58208;SDS011;44006;52.028;4.696;2023-11-21T01:42:12;23.98;;;10.75;;
58208;SDS011;44006;52.028;4.696;2023-11-21T01:44:38;19.35;;;10.68;;
58208;SDS011;44006;52.028;4.696;2023-11-21T01:47:03;28.75;;;11.43;;
58208;SDS011;44006;52.028;4.696;2023-11-21T01:49:31;24.40;;;10.73;;
58208;SDS011;44006;52.028;4.696;2023-11-21T01:51:57;24.50;;;11.75;;
58208;SDS011;44006;52.028;4.696;2023-11-21T01:54:22;20.77;;;11.05;;
58208;SDS011;44006;52.028;4.696;2023-11-21T01:56:47;36.27;;;12.70;;
58208;SDS011;44006;52.028;4.696;2023-11-21T01:59:14;29.98;;;12.80;;
58208;SDS011;44006;52.028;4.696;2023-11-21T02:01:42;29.95;;;12.65;;
58208;SDS011;44006;52.028;4.696;2023-11-21T02:04:08;26.95;;;11.90;;
58208;SDS011;44006;52.028;4.696;2023-11-21T02:06:34;25.45;;;11.60;;
58208;SDS011;44006;52.028;4.696;2023-11-21T02:36:26;25.35;;;11.18;;
58208;SDS011;44006;52.028;4.696;2023-11-21T02:38:51;23.63;;;10.33;;
58208;SDS011;44006;52.028;4.696;2023-11-21T02:41:16;21.67;;;11.10;;
58208;SDS011;44006;52.028;4.696;2023-11-21T02:43:41;25.37;;;10.20;;
58208;SDS011;44006;52.028;4.696;2023-11-21T02:46:08;28.42;;;12.52;;
58208;SDS011;44006;52.028;4.696;2023-11-21T02:48:33;28.25;;;10.93;;
58208;SDS011;44006;52.028;4.696;2023-11-21T02:50:58;26.20;;;11.73;;
58208;SDS011;44006;52.028;4.696;2023-11-21T02:53:24;26.63;;;10.20;;
58208;SDS011;44006;52.028;4.696;2023-11-21T02:55:49;22.83;;;11.73;;
58208;SDS011;44006;52.028;4.696;2023-11-21T02:58:14;28.30;;;11.27;;
58208;SDS011;44006;52.028;4.696;2023-11-21T03:00:39;22.20;;;10.87;;
58208;SDS011;44006;52.028;4.696;2023-11-21T03:03:06;24.90;;;10.73;;
58208;SDS011;44006;52.028;4.696;2023-11-21T03:05:32;21.50;;;9.93;;
58208;SDS011;44006;52.028;4.696;2023-11-21T03:08:00;21.27;;;9.85;;
58208;SDS011;44006;52.028;4.696;2023-11-21T03:10:25;26.02;;;10.75;;
58208;SDS011;44006;52.028;4.696;2023-11-21T03:12:51;23.40;;;9.95;;
58208;SDS011;44006;52.028;4.696;2023-11-21T03:15:16;23.25;;;10.38;;
58208;SDS011;44006;52.028;4.696;2023-11-21T03:17:41;21.25;;;9.65;;
58208;SDS011;44006;52.028;4.696;2023-11-21T03:20:07;26.75;;;10.43;;
58208;SDS011;44006;52.028;4.696;2023-11-21T03:22:35;23.92;;;11.13;;
58208;SDS011;44006;52.028;4.696;2023-11-21T03:25:01;26.00;;;10.50;;
58208;SDS011;44006;52.028;4.696;2023-11-21T03:27:26;24.57;;;11.10;;
58208;SDS011;44006;52.028;4.696;2023-11-21T03:29:51;25.23;;;10.57;;
58208;SDS011;44006;52.028;4.696;2023-11-21T03:32:17;28.55;;;11.40;;
58208;SDS011;44006;52.028;4.696;2023-11-21T03:34:55;27.65;;;11.50;;
58208;SDS011;44006;52.028;4.696;2023-11-21T03:37:21;35.70;;;12.07;;
58208;SDS011;44006;52.028;4.696;2023-11-21T03:39:46;25.85;;;11.82;;
58208;SDS011;44006;52.028;4.696;2023-11-21T03:42:12;24.13;;;11.20;;
58208;SDS011;44006;52.028;4.696;2023-11-21T03:44:37;25.93;;;11.67;;
58208;SDS011;44006;52.028;4.696;2023-11-21T03:47:02;23.07;;;11.07;;
58208;SDS011;44006;52.028;4.696;2023-11-21T03:49:27;25.33;;;12.13;;
58208;SDS011;44006;52.028;4.696;2023-11-21T03:51:54;24.38;;;11.27;;
58208;SDS011;44006;52.028;4.696;2023-11-21T03:54:19;28.60;;;12.23;;
58208;SDS011;44006;52.028;4.696;2023-11-21T03:56:44;27.20;;;11.23;;
58208;SDS011;44006;52.028;4.696;2023-11-21T03:59:09;23.77;;;11.75;;
58208;SDS011;44006;52.028;4.696;2023-11-21T04:01:35;24.98;;;11.63;;
58208;SDS011;44006;52.028;4.696;2023-11-21T04:04:00;22.63;;;11.53;;
58208;SDS011;44006;52.028;4.696;2023-11-21T04:06:25;30.43;;;12.90;;
58208;SDS011;44006;52.028;4.696;2023-11-21T04:08:50;21.40;;;13.17;;
58208;SDS011;44006;52.028;4.696;2023-11-21T04:11:15;26.95;;;12.60;;
58208;SDS011;44006;52.028;4.696;2023-11-21T04:13:41;23.87;;;11.90;;
58208;SDS011;44006;52.028;4.696;2023-11-21T04:16:07;31.77;;;12.30;;
58208;SDS011;44006;52.028;4.696;2023-11-21T04:18:33;24.45;;;12.10;;
58208;SDS011;44006;52.028;4.696;2023-11-21T04:20:58;19.35;;;11.25;;
58208;SDS011;44006;52.028;4.696;2023-11-21T04:23:24;18.27;;;10.95;;
58208;SDS011;44006;52.028;4.696;2023-11-21T04:25:49;38.40;;;13.97;;
58208;SDS011;44006;52.028;4.696;2023-11-21T04:28:14;24.50;;;12.05;;
58208;SDS011;44006;52.028;4.696;2023-11-21T04:30:39;23.93;;;11.90;;
58208;SDS011;44006;52.028;4.696;2023-11-21T04:33:05;20.15;;;11.35;;
58208;SDS011;44006;52.028;4.696;2023-11-21T04:35:30;23.00;;;11.60;;
58208;SDS011;44006;52.028;4.696;2023-11-21T04:37:56;27.10;;;11.00;;
58208;SDS011;44006;52.028;4.696;2023-11-21T04:40:22;25.73;;;11.93;;
58208;SDS011;44006;52.028;4.696;2023-11-21T04:42:47;23.95;;;11.75;;
58208;SDS011;44006;52.028;4.696;2023-11-21T04:45:13;25.20;;;11.70;;
58208;SDS011;44006;52.028;4.696;2023-11-21T04:47:38;24.20;;;11.43;;
58208;SDS011;44006;52.028;4.696;2023-11-21T04:50:03;25.63;;;11.63;;
58208;SDS011;44006;52.028;4.696;2023-11-21T04:52:29;22.38;;;11.52;;
58208;SDS011;44006;52.028;4.696;2023-11-21T04:54:54;21.00;;;10.80;;
58208;SDS011;44006;52.028;4.696;2023-11-21T04:57:20;20.58;;;10.48;;
58208;SDS011;44006;52.028;4.696;2023-11-21T04:59:45;21.52;;;10.95;;
58208;SDS011;44006;52.028;4.696;2023-11-21T05:02:11;23.35;;;10.90;;
58208;SDS011;44006;52.028;4.696;2023-11-21T05:04:37;24.58;;;11.00;;
58208;SDS011;44006;52.028;4.696;2023-11-21T05:07:02;28.02;;;12.98;;
58208;SDS011;44006;52.028;4.696;2023-11-21T05:09:27;20.75;;;10.75;;
58208;SDS011;44006;52.028;4.696;2023-11-21T05:11:56;19.00;;;10.32;;
58208;SDS011;44006;52.028;4.696;2023-11-21T05:14:22;24.80;;;11.47;;
58208;SDS011;44006;52.028;4.696;2023-11-21T05:16:47;21.63;;;10.93;;
58208;SDS011;44006;52.028;4.696;2023-11-21T05:19:12;27.47;;;11.50;;
58208;SDS011;44006;52.028;4.696;2023-11-21T05:21:38;23.50;;;10.95;;
58208;SDS011;44006;52.028;4.696;2023-11-21T05:24:03;22.00;;;10.95;;
58208;SDS011;44006;52.028;4.696;2023-11-21T05:26:28;22.50;;;10.30;;
58208;SDS011;44006;52.028;4.696;2023-11-21T05:28:53;19.73;;;10.02;;
58208;SDS011;44006;52.028;4.696;2023-11-21T05:31:19;23.23;;;10.35;;
58208;SDS011;44006;52.028;4.696;2023-11-21T05:33:44;22.13;;;10.97;;
58208;SDS011;44006;52.028;4.696;2023-11-21T05:36:09;21.20;;;10.75;;
58208;SDS011;44006;52.028;4.696;2023-11-21T05:38:35;23.92;;;10.30;;
58208;SDS011;44006;52.028;4.696;2023-11-21T05:41:00;21.38;;;10.50;;
58208;SDS011;44006;52.028;4.696;2023-11-21T05:43:25;22.85;;;11.55;;
58208;SDS011;44006;52.028;4.696;2023-11-21T05:45:53;20.25;;;10.77;;
58208;SDS011;44006;52.028;4.696;2023-11-21T05:48:18;17.25;;;9.93;;
58208;SDS011;44006;52.028;4.696;2023-11-21T05:50:43;23.03;;;11.00;;
58208;SDS011;44006;52.028;4.696;2023-11-21T05:53:09;19.33;;;10.50;;
58208;SDS011;44006;52.028;4.696;2023-11-21T05:55:36;19.42;;;11.20;;
58208;SDS011;44006;52.028;4.696;2023-11-21T05:58:02;21.92;;;11.15;;
58208;SDS011;44006;52.028;4.696;2023-11-21T06:00:27;20.02;;;10.65;;
58208;SDS011;44006;52.028;4.696;2023-11-21T06:02:53;18.30;;;10.50;;
58208;SDS011;44006;52.028;4.696;2023-11-21T06:05:19;20.95;;;11.27;;
58208;SDS011;44006;52.028;4.696;2023-11-21T06:07:44;25.65;;;11.68;;
58208;SDS011;44006;52.028;4.696;2023-11-21T06:10:10;23.20;;;12.38;;
58208;SDS011;44006;52.028;4.696;2023-11-21T06:12:36;19.20;;;11.13;;
58208;SDS011;44006;52.028;4.696;2023-11-21T06:15:03;19.33;;;11.23;;
58208;SDS011;44006;52.028;4.696;2023-11-21T06:17:30;23.73;;;11.25;;
58208;SDS011;44006;52.028;4.696;2023-11-21T06:19:55;24.20;;;11.23;;
58208;SDS011;44006;52.028;4.696;2023-11-21T06:22:20;22.17;;;11.40;;
58208;SDS011;44006;52.028;4.696;2023-11-21T06:24:46;23.60;;;10.90;;
58208;SDS011;44006;52.028;4.696;2023-11-21T06:27:11;17.60;;;10.37;;
58208;SDS011;44006;52.028;4.696;2023-11-21T06:29:36;14.83;;;9.80;;
58208;SDS011;44006;52.028;4.696;2023-11-21T06:32:02;17.92;;;11.30;;
58208;SDS011;44006;52.028;4.696;2023-11-21T06:34:30;18.42;;;10.50;;
58208;SDS011;44006;52.028;4.696;2023-11-21T06:36:55;17.23;;;9.38;;
58208;SDS011;44006;52.028;4.696;2023-11-21T06:39:20;17.60;;;9.87;;
58208;SDS011;44006;52.028;4.696;2023-11-21T06:41:47;15.38;;;9.75;;
58208;SDS011;44006;52.028;4.696;2023-11-21T06:44:13;18.00;;;9.95;;
58208;SDS011;44006;52.028;4.696;2023-11-21T06:46:38;17.60;;;9.37;;
58208;SDS011;44006;52.028;4.696;2023-11-21T06:49:07;15.93;;;9.52;;
58208;SDS011;44006;52.028;4.696;2023-11-21T06:51:32;16.40;;;9.27;;
58208;SDS011;44006;52.028;4.696;2023-11-21T06:53:57;15.50;;;9.13;;
58208;SDS011;44006;52.028;4.696;2023-11-21T06:56:22;14.70;;;9.03;;
58208;SDS011;44006;52.028;4.696;2023-11-21T06:58:48;18.15;;;9.32;;
58208;SDS011;44006;52.028;4.696;2023-11-21T07:01:14;16.13;;;9.05;;
58208;SDS011;44006;52.028;4.696;2023-11-21T07:03:40;18.52;;;10.15;;
58208;SDS011;44006;52.028;4.696;2023-11-21T07:06:06;16.20;;;9.52;;
58208;SDS011;44006;52.028;4.696;2023-11-21T07:08:32;20.10;;;9.82;;
58208;SDS011;44006;52.028;4.696;2023-11-21T07:10:57;25.50;;;10.18;;
58208;SDS011;44006;52.028;4.696;2023-11-21T07:13:22;19.93;;;10.50;;
58208;SDS011;44006;52.028;4.696;2023-11-21T07:15:48;22.02;;;10.40;;
58208;SDS011;44006;52.028;4.696;2023-11-21T07:18:13;23.30;;;10.25;;
58208;SDS011;44006;52.028;4.696;2023-11-21T07:20:39;23.23;;;9.40;;
58208;SDS011;44006;52.028;4.696;2023-11-21T07:23:04;22.98;;;9.68;;
58208;SDS011;44006;52.028;4.696;2023-11-21T07:25:29;24.20;;;9.50;;
58208;SDS011;44006;52.028;4.696;2023-11-21T07:27:54;20.13;;;9.47;;
58208;SDS011;44006;52.028;4.696;2023-11-21T07:30:20;27.83;;;9.45;;
58208;SDS011;44006;52.028;4.696;2023-11-21T07:32:47;24.30;;;9.43;;
58208;SDS011;44006;52.028;4.696;2023-11-21T07:35:13;23.45;;;9.93;;
58208;SDS011;44006;52.028;4.696;2023-11-21T07:37:38;21.40;;;9.38;;
58208;SDS011;44006;52.028;4.696;2023-11-21T07:40:03;22.73;;;9.30;;
58208;SDS011;44006;52.028;4.696;2023-11-21T07:42:28;23.70;;;9.13;;
58208;SDS011;44006;52.028;4.696;2023-11-21T07:44:54;17.57;;;8.90;;
58208;SDS011;44006;52.028;4.696;2023-11-21T07:47:20;23.27;;;9.40;;
58208;SDS011;44006;52.028;4.696;2023-11-21T07:49:46;23.63;;;9.25;;
58208;SDS011;44006;52.028;4.696;2023-11-21T07:52:12;21.80;;;8.85;;
58208;SDS011;44006;52.028;4.696;2023-11-21T07:54:38;23.25;;;9.48;;
58208;SDS011;44006;52.028;4.696;2023-11-21T07:57:03;23.05;;;9.32;;
58208;SDS011;44006;52.028;4.696;2023-11-21T07:59:29;18.65;;;9.48;;
58208;SDS011;44006;52.028;4.696;2023-11-21T08:01:54;24.75;;;9.98;;
58208;SDS011;44006;52.028;4.696;2023-11-21T08:04:20;24.63;;;10.40;;
58208;SDS011;44006;52.028;4.696;2023-11-21T08:06:45;19.43;;;9.93;;
58208;SDS011;44006;52.028;4.696;2023-11-21T08:09:10;24.90;;;11.38;;
58208;SDS011;44006;52.028;4.696;2023-11-21T08:11:37;22.35;;;11.30;;
58208;SDS011;44006;52.028;4.696;2023-11-21T08:14:03;24.05;;;11.82;;
58208;SDS011;44006;52.028;4.696;2023-11-21T08:16:29;25.60;;;11.77;;
58208;SDS011;44006;52.028;4.696;2023-11-21T08:18:55;23.88;;;11.38;;
58208;SDS011;44006;52.028;4.696;2023-11-21T08:21:20;25.07;;;12.70;;
58208;SDS011;44006;52.028;4.696;2023-11-21T08:23:45;27.27;;;12.47;;
58208;SDS011;44006;52.028;4.696;2023-11-21T08:26:10;32.97;;;13.03;;
58208;SDS011;44006;52.028;4.696;2023-11-21T08:28:35;26.88;;;12.77;;
58208;SDS011;44006;52.028;4.696;2023-11-21T08:31:01;29.40;;;13.80;;
58208;SDS011;44006;52.028;4.696;2023-11-21T08:33:26;27.85;;;13.60;;
58208;SDS011;44006;52.028;4.696;2023-11-21T08:35:51;31.42;;;13.77;;
58208;SDS011;44006;52.028;4.696;2023-11-21T08:38:17;28.10;;;12.70;;
58208;SDS011;44006;52.028;4.696;2023-11-21T08:40:42;30.00;;;13.52;;
58208;SDS011;44006;52.028;4.696;2023-11-21T08:43:08;33.60;;;13.90;;
58208;SDS011;44006;52.028;4.696;2023-11-21T08:45:33;29.45;;;12.65;;
58208;SDS011;44006;52.028;4.696;2023-11-21T08:47:59;25.45;;;12.68;;
58208;SDS011;44006;52.028;4.696;2023-11-21T08:50:24;31.52;;;13.38;;
58208;SDS011;44006;52.028;4.696;2023-11-21T08:52:49;27.73;;;13.23;;
58208;SDS011;44006;52.028;4.696;2023-11-21T08:55:16;32.17;;;12.98;;
58208;SDS011;44006;52.028;4.696;2023-11-21T08:57:43;36.50;;;13.55;;
58208;SDS011;44006;52.028;4.696;2023-11-21T09:00:08;33.30;;;14.65;;
58208;SDS011;44006;52.028;4.696;2023-11-21T09:02:37;32.58;;;15.18;;
58208;SDS011;44006;52.028;4.696;2023-11-21T09:05:05;38.90;;;15.95;;
58208;SDS011;44006;52.028;4.696;2023-11-21T09:07:31;37.65;;;17.10;;
58208;SDS011;44006;52.028;4.696;2023-11-21T09:09:56;37.97;;;16.83;;
58208;SDS011;44006;52.028;4.696;2023-11-21T09:12:21;37.27;;;16.00;;
58208;SDS011;44006;52.028;4.696;2023-11-21T09:14:47;41.83;;;17.58;;
58208;SDS011;44006;52.028;4.696;2023-11-21T09:17:12;41.35;;;17.90;;
58208;SDS011;44006;52.028;4.696;2023-11-21T09:19:38;37.47;;;17.25;;
58208;SDS011;44006;52.028;4.696;2023-11-21T09:22:03;39.40;;;17.13;;
58208;SDS011;44006;52.028;4.696;2023-11-21T09:24:30;36.17;;;15.55;;
58208;SDS011;44006;52.028;4.696;2023-11-21T09:26:55;30.35;;;13.48;;
58208;SDS011;44006;52.028;4.696;2023-11-21T09:29:20;30.37;;;12.37;;
58208;SDS011;44006;52.028;4.696;2023-11-21T09:31:45;29.43;;;11.70;;
58208;SDS011;44006;52.028;4.696;2023-11-21T09:34:10;28.63;;;10.75;;
58208;SDS011;44006;52.028;4.696;2023-11-21T09:36:36;27.42;;;10.48;;
58208;SDS011;44006;52.028;4.696;2023-11-21T09:39:04;21.88;;;9.20;;
58208;SDS011;44006;52.028;4.696;2023-11-21T09:44:02;24.17;;;8.88;;
58208;SDS011;44006;52.028;4.696;2023-11-21T09:46:27;21.23;;;9.25;;
58208;SDS011;44006;52.028;4.696;2023-11-21T09:48:53;17.92;;;8.45;;
58208;SDS011;44006;52.028;4.696;2023-11-21T09:51:21;17.80;;;7.82;;
58208;SDS011;44006;52.028;4.696;2023-11-21T09:53:49;19.45;;;8.55;;
58208;SDS011;44006;52.028;4.696;2023-11-21T09:56:17;20.90;;;7.85;;
58208;SDS011;44006;52.028;4.696;2023-11-21T09:58:49;21.17;;;8.25;;
58208;SDS011;44006;52.028;4.696;2023-11-21T10:01:15;17.25;;;8.40;;
58208;SDS011;44006;52.028;4.696;2023-11-21T10:03:41;18.02;;;8.68;;
58208;SDS011;44006;52.028;4.696;2023-11-21T10:06:07;20.42;;;9.73;;
58208;SDS011;44006;52.028;4.696;2023-11-21T10:08:33;19.42;;;8.80;;
58208;SDS011;44006;52.028;4.696;2023-11-21T10:10:58;22.90;;;10.52;;
58208;SDS011;44006;52.028;4.696;2023-11-21T10:13:24;19.55;;;10.05;;
58208;SDS011;44006;52.028;4.696;2023-11-21T10:15:51;20.05;;;9.90;;
58208;SDS011;44006;52.028;4.696;2023-11-21T10:18:18;19.38;;;10.02;;
58208;SDS011;44006;52.028;4.696;2023-11-21T10:20:44;21.27;;;9.57;;
58208;SDS011;44006;52.028;4.696;2023-11-21T10:23:16;20.23;;;10.10;;
58208;SDS011;44006;52.028;4.696;2023-11-21T10:25:42;19.75;;;10.15;;
58208;SDS011;44006;52.028;4.696;2023-11-21T10:28:07;22.23;;;11.03;;
58208;SDS011;44006;52.028;4.696;2023-11-21T10:30:35;21.38;;;10.75;;
58208;SDS011;44006;52.028;4.696;2023-11-21T10:33:02;21.52;;;11.10;;
58208;SDS011;44006;52.028;4.696;2023-11-21T10:35:48;20.80;;;11.23;;
58208;SDS011;44006;52.028;4.696;2023-11-21T10:38:19;26.90;;;11.30;;
58208;SDS011;44006;52.028;4.696;2023-11-21T10:40:46;23.55;;;11.75;;
58208;SDS011;44006;52.028;4.696;2023-11-21T10:43:11;29.38;;;12.45;;
58208;SDS011;44006;52.028;4.696;2023-11-21T10:48:09;25.27;;;11.50;;
58208;SDS011;44006;52.028;4.696;2023-11-21T10:50:35;29.00;;;12.23;;
58208;SDS011;44006;52.028;4.696;2023-11-21T10:53:01;26.15;;;13.20;;
58208;SDS011;44006;52.028;4.696;2023-11-21T10:55:27;28.98;;;13.52;;
58208;SDS011;44006;52.028;4.696;2023-11-21T10:57:53;34.10;;;14.75;;
58208;SDS011;44006;52.028;4.696;2023-11-21T11:00:19;35.95;;;15.20;;
58208;SDS011;44006;52.028;4.696;2023-11-21T11:02:51;34.97;;;16.48;;
58208;SDS011;44006;52.028;4.696;2023-11-21T11:05:18;35.33;;;16.08;;
58208;SDS011;44006;52.028;4.696;2023-11-21T11:07:44;34.85;;;16.17;;
58208;SDS011;44006;52.028;4.696;2023-11-21T11:10:09;36.22;;;15.70;;
58208;SDS011;44006;52.028;4.696;2023-11-21T11:12:39;38.47;;;15.63;;
58208;SDS011;44006;52.028;4.696;2023-11-21T11:15:04;34.88;;;14.93;;
58208;SDS011;44006;52.028;4.696;2023-11-21T11:17:30;30.95;;;15.18;;
58208;SDS011;44006;52.028;4.696;2023-11-21T11:19:57;26.55;;;12.73;;
58208;SDS011;44006;52.028;4.696;2023-11-21T11:33:06;22.63;;;9.93;;
58208;SDS011;44006;52.028;4.696;2023-11-21T11:38:06;18.65;;;9.15;;
58208;SDS011;44006;52.028;4.696;2023-11-21T11:40:40;21.45;;;9.55;;
58208;SDS011;44006;52.028;4.696;2023-11-21T11:43:06;20.83;;;9.40;;
58208;SDS011;44006;52.028;4.696;2023-11-21T11:45:32;20.63;;;10.25;;
58208;SDS011;44006;52.028;4.696;2023-11-21T11:47:59;23.33;;;10.13;;
58208;SDS011;44006;52.028;4.696;2023-11-21T11:50:24;20.70;;;9.32;;
58208;SDS011;44006;52.028;4.696;2023-11-21T11:52:52;17.60;;;9.07;;
58208;SDS011;44006;52.028;4.696;2023-11-21T11:55:20;18.65;;;9.00;;
58208;SDS011;44006;52.028;4.696;2023-11-21T11:57:47;21.02;;;9.75;;
58208;SDS011;44006;52.028;4.696;2023-11-21T12:02:53;21.27;;;9.10;;
58208;SDS011;44006;52.028;4.696;2023-11-21T12:05:19;23.85;;;9.60;;
58208;SDS011;44006;52.028;4.696;2023-11-21T12:10:22;22.75;;;10.63;;
58208;SDS011;44006;52.028;4.696;2023-11-21T12:12:56;29.27;;;10.25;;
58208;SDS011;44006;52.028;4.696;2023-11-21T12:15:22;28.67;;;11.60;;
58208;SDS011;44006;52.028;4.696;2023-11-21T12:17:48;26.88;;;10.25;;
58208;SDS011;44006;52.028;4.696;2023-11-21T12:20:20;26.25;;;11.15;;
58208;SDS011;44006;52.028;4.696;2023-11-21T12:22:46;25.25;;;11.18;;
58208;SDS011;44006;52.028;4.696;2023-11-21T12:25:21;28.65;;;11.98;;
58208;SDS011;44006;52.028;4.696;2023-11-21T12:27:47;31.77;;;12.38;;
58208;SDS011;44006;52.028;4.696;2023-11-21T12:30:14;32.55;;;13.13;;
58208;SDS011;44006;52.028;4.696;2023-11-21T12:32:43;31.40;;;12.88;;
58208;SDS011;44006;52.028;4.696;2023-11-21T12:35:11;28.98;;;12.95;;
58208;SDS011;44006;52.028;4.696;2023-11-21T12:37:37;28.20;;;12.93;;
58208;SDS011;44006;52.028;4.696;2023-11-21T12:40:04;28.20;;;12.95;;
58208;SDS011;44006;52.028;4.696;2023-11-21T12:42:29;31.23;;;13.38;;
58208;SDS011;44006;52.028;4.696;2023-11-21T12:47:40;25.25;;;12.70;;
58208;SDS011;44006;52.028;4.696;2023-11-21T12:50:05;27.58;;;13.10;;
58208;SDS011;44006;52.028;4.696;2023-11-21T12:52:32;27.85;;;13.25;;
58208;SDS011;44006;52.028;4.696;2023-11-21T12:54:57;26.60;;;13.15;;
58208;SDS011;44006;52.028;4.696;2023-11-21T12:57:25;24.85;;;12.38;;
58208;SDS011;44006;52.028;4.696;2023-11-21T12:59:56;25.05;;;12.45;;
58208;SDS011;44006;52.028;4.696;2023-11-21T13:02:21;24.02;;;12.38;;
58208;SDS011;44006;52.028;4.696;2023-11-21T13:04:51;25.05;;;12.93;;
58208;SDS011;44006;52.028;4.696;2023-11-21T13:07:17;25.65;;;13.50;;
58208;SDS011;44006;52.028;4.696;2023-11-21T13:09:43;23.80;;;12.93;;
58208;SDS011;44006;52.028;4.696;2023-11-21T13:12:09;23.52;;;13.45;;
58208;SDS011;44006;52.028;4.696;2023-11-21T13:14:35;26.45;;;12.45;;
58208;SDS011;44006;52.028;4.696;2023-11-21T13:17:00;22.23;;;13.05;;
58208;SDS011;44006;52.028;4.696;2023-11-21T13:19:25;26.70;;;14.30;;
58208;SDS011;44006;52.028;4.696;2023-11-21T13:21:52;24.42;;;14.13;;
58208;SDS011;44006;52.028;4.696;2023-11-21T13:24:17;28.20;;;14.50;;
58208;SDS011;44006;52.028;4.696;2023-11-21T13:26:43;24.80;;;14.03;;
58208;SDS011;44006;52.028;4.696;2023-11-21T13:29:10;27.05;;;14.98;;
58208;SDS011;44006;52.028;4.696;2023-11-21T13:31:37;30.52;;;15.52;;
58208;SDS011;44006;52.028;4.696;2023-11-21T13:34:03;27.33;;;14.38;;
58208;SDS011;44006;52.028;4.696;2023-11-21T13:36:30;33.53;;;16.63;;
58208;SDS011;44006;52.028;4.696;2023-11-21T13:38:58;27.30;;;14.05;;
58208;SDS011;44006;52.028;4.696;2023-11-21T13:41:33;27.98;;;15.23;;
58208;SDS011;44006;52.028;4.696;2023-11-21T13:43:58;30.23;;;15.10;;
58208;SDS011;44006;52.028;4.696;2023-11-21T13:46:41;30.17;;;15.40;;
58208;SDS011;44006;52.028;4.696;2023-11-21T13:49:06;29.17;;;14.25;;
58208;SDS011;44006;52.028;4.696;2023-11-21T13:51:34;31.90;;;14.98;;
58208;SDS011;44006;52.028;4.696;2023-11-21T13:54:06;31.13;;;15.52;;
58208;SDS011;44006;52.028;4.696;2023-11-21T13:56:34;32.58;;;16.63;;
58208;SDS011;44006;52.028;4.696;2023-11-21T13:59:00;34.78;;;17.08;;
58208;SDS011;44006;52.028;4.696;2023-11-21T14:01:34;33.35;;;17.33;;
58208;SDS011;44006;52.028;4.696;2023-11-21T14:04:03;34.38;;;17.08;;
58208;SDS011;44006;52.028;4.696;2023-11-21T14:06:40;35.35;;;18.23;;
58208;SDS011;44006;52.028;4.696;2023-11-21T14:09:13;30.85;;;17.60;;
58208;SDS011;44006;52.028;4.696;2023-11-21T14:11:47;29.48;;;17.20;;
58208;SDS011;44006;52.028;4.696;2023-11-21T14:14:12;34.73;;;18.23;;
58208;SDS011;44006;52.028;4.696;2023-11-21T14:16:37;30.40;;;17.60;;
58208;SDS011;44006;52.028;4.696;2023-11-21T14:19:02;27.83;;;16.70;;
58208;SDS011;44006;52.028;4.696;2023-11-21T14:21:30;28.92;;;16.65;;
58208;SDS011;44006;52.028;4.696;2023-11-21T14:23:55;29.53;;;17.50;;
58208;SDS011;44006;52.028;4.696;2023-11-21T14:26:21;29.43;;;17.57;;
58208;SDS011;44006;52.028;4.696;2023-11-21T14:28:46;30.15;;;16.05;;
58208;SDS011;44006;52.028;4.696;2023-11-21T14:31:13;29.40;;;16.40;;
58208;SDS011;44006;52.028;4.696;2023-11-21T14:33:42;29.73;;;15.60;;
58208;SDS011;44006;52.028;4.696;2023-11-21T14:36:07;31.92;;;16.05;;
58208;SDS011;44006;52.028;4.696;2023-11-21T14:38:35;30.00;;;16.23;;
58208;SDS011;44006;52.028;4.696;2023-11-21T14:41:00;32.25;;;16.77;;
58208;SDS011;44006;52.028;4.696;2023-11-21T14:43:25;30.30;;;15.98;;
58208;SDS011;44006;52.028;4.696;2023-11-21T14:45:54;27.25;;;15.60;;
58208;SDS011;44006;52.028;4.696;2023-11-21T14:48:21;28.75;;;16.45;;
58208;SDS011;44006;52.028;4.696;2023-11-21T14:51:03;30.10;;;16.23;;
58208;SDS011;44006;52.028;4.696;2023-11-21T14:53:29;33.95;;;17.08;;
58208;SDS011;44006;52.028;4.696;2023-11-21T14:56:29;37.53;;;17.50;;
58208;SDS011;44006;52.028;4.696;2023-11-21T14:59:02;31.17;;;17.08;;
58208;SDS011;44006;52.028;4.696;2023-11-21T15:01:33;38.85;;;18.20;;
58208;SDS011;44006;52.028;4.696;2023-11-21T15:04:09;36.85;;;18.23;;
58208;SDS011;44006;52.028;4.696;2023-11-21T15:06:45;31.63;;;18.60;;
58208;SDS011;44006;52.028;4.696;2023-11-21T15:09:12;31.35;;;18.80;;
58208;SDS011;44006;52.028;4.696;2023-11-21T15:11:37;36.33;;;19.37;;